Strona główna
METAR-TAF:

METAR-TAF

Lotnisko :

Port lotniczy Ajaccio-Campo dell'Oro

Ajaccio, Francja

Szerokość geograficzna: 41-55N, Długość geograficzna: 008-48E, wysokość: 6 m

Aktualna obserwacja pogody

Raport powstał 27 minut temu, godzina 11:30 UTC
Wiatr 3 kt z kierunków zmiennych
Temperatura 19°C
Wilgotność 52%
Ciśnienie 1017 hPa
Widzialność 10 km lub więcej
Brak chmur poniżej 1500 m i brak chmur cumulonimbus

METAR: LFKJ 161130Z AUTO VRB03KT CAVOK 19/09 Q1017 NOSIG

czas: 12:57 (11:57 UTC)

Prognoza

Raport powstał 3 godziny i 57 minut temu, godzina 08:00 UTC
Prognoza ważna od 16 godzina 09 UTC do 17 godzina 09 UTC
Wiatr 6 kt od północny wschód
Widzialność 10 km lub więcej
Brak chmur poniżej 1500 m i brak chmur cumulonimbus
Przejściowo
od 16 godzina 12 UTC do 16 godzina 15 UTC
Wiatr 10 kt od południowy zachód
Przejściowo
od 16 godzina 23 UTC do 17 godzina 02 UTC
Wiatr 10 kt od wschód

TAF: LFKJ 160800Z 1609/1709 04006KT CAVOK TEMPO 1612/1615 22010KT TEMPO 1623/1702 10010KT

Obserwacja i prognoza pogody dla ponad 4000 lotnisk (raport METAR i TAF).

Dostępne stacje oznaczono żółtymi i czerwonymi punktami na mapie.

Najedź kursorem aby zobaczyć nazwę stacji.

Kliknij aby zobaczyć obserwacje i prognozy pogody.

Aby zmienić mapę: kliknij na zielony przycisk z czarnym krzyżykiem, aby powiększyć; na zielony przycisk z myślnikiem, aby pomniejszyć; na zielone strzałki, aby przejść do map sąsiednich.


METAR-TAF: